Time;durP1;ratioP1;P1;durP2;ratioP2;P2;SDS_P1;SDS_P2;PMS_P1;PMS_P2;Temp;Humidity;BMP_temperature;BMP_pressure;BME280_temperature;BME280_humidity;BME280_pressure;Samples;Min_cycle;Max_cycle;Signal;HPM_P1;HPM_P2
2022/11/30 06:16:34;;;;;;;106.82;37.65;;;2.10;99.90;;;;;;7489404;19;2997845;-75
2022/11/30 06:19:06;;;;;;;102.65;38.42;;;2.10;99.90;;;;;;7653314;19;20545;-76
2022/11/30 06:21:38;;;;;;;105.10;40.10;;;2.10;99.90;;;;;;7637157;19;20018;-75
2022/11/30 06:24:10;;;;;;;103.63;39.05;;;2.10;99.90;;;;;;7632816;19;20037;-75
2022/11/30 06:26:42;;;;;;;106.40;39.45;;;2.20;99.90;;;;;;7646461;19;20018;-76
2022/11/30 06:29:14;;;;;;;112.15;41.42;;;2.30;99.90;;;;;;7637097;19;20029;-75
2022/11/30 06:31:46;;;;;;;108.72;41.58;;;2.40;99.90;;;;;;7591797;19;22470;-75
2022/11/30 06:34:18;;;;;;;106.55;39.88;;;2.50;99.90;;;;;;7596897;19;20018;-76
2022/11/30 06:36:51;;;;;;;96.00;39.75;;;2.50;99.90;;;;;;7594362;19;20727;-76
2022/11/30 06:39:23;;;;;;;105.45;39.70;;;2.60;99.90;;;;;;7575119;19;20018;-75
2022/11/30 06:42:15;;;;;;;104.72;39.63;;;2.70;99.90;;;;;;7580701;19;20025;-77
2022/11/30 06:44:47;;;;;;;103.57;40.30;;;2.70;99.90;;;;;;7628924;19;20024;-77
2022/11/30 06:47:20;;;;;;;104.43;40.77;;;2.70;99.90;;;;;;7614475;19;20041;-75
2022/11/30 06:49:52;;;;;;;105.75;40.75;;;2.70;99.90;;;;;;7588751;19;20541;-74
2022/11/30 06:52:24;;;;;;;99.65;40.40;;;2.80;99.90;;;;;;7611800;19;20022;-77
2022/11/30 06:54:56;;;;;;;104.72;39.85;;;2.80;99.90;;;;;;7587094;19;20014;-76
2022/11/30 06:57:29;;;;;;;98.03;39.92;;;2.80;99.90;;;;;;7588731;19;20631;-76
2022/11/30 07:00:01;;;;;;;102.10;40.03;;;2.90;99.90;;;;;;7611865;19;20026;-75
2022/11/30 07:02:33;;;;;;;95.55;36.10;;;2.90;99.90;;;;;;7617568;19;20657;-76
2022/11/30 07:05:05;;;;;;;105.65;40.65;;;2.90;99.90;;;;;;7620433;19;20914;-76
2022/11/30 07:07:37;;;;;;;101.30;37.15;;;2.90;99.90;;;;;;7643039;19;20030;-75
2022/11/30 07:10:10;;;;;;;93.47;36.65;;;3.00;99.90;;;;;;7636887;19;20082;-73
2022/11/30 07:12:48;;;;;;;99.28;38.90;;;3.10;99.90;;;;;;7643017;19;20063;-74
2022/11/30 07:15:21;;;;;;;101.00;38.75;;;3.00;99.90;;;;;;7633124;19;20022;-75
2022/11/30 07:17:52;;;;;;;100.80;39.88;;;3.10;99.90;;;;;;7637421;19;20029;-75
2022/11/30 07:20:24;;;;;;;102.32;39.67;;;3.10;99.90;;;;;;7648262;19;20022;-76
2022/11/30 07:26:04;;;;;;;94.90;38.40;;;3.10;99.90;;;;;;7650984;19;20029;-78
2022/11/30 07:26:05;;;;;;;89.07;36.50;;;3.10;99.90;;;;;;7628101;19;20026;-76
2022/11/30 07:28:39;;;;;;;91.20;36.40;;;3.10;99.90;;;;;;7613147;19;20022;-74
2022/11/30 07:31:26;;;;;;;108.07;39.00;;;3.10;99.90;;;;;;7588470;19;20010;-75
2022/11/30 07:34:03;;;;;;;95.00;37.47;;;3.10;99.90;;;;;;7610440;19;20022;-75
2022/11/30 07:36:36;;;;;;;97.90;36.67;;;3.10;99.90;;;;;;7611046;19;20019;-77
2022/11/30 07:39:08;;;;;;;106.03;38.63;;;3.10;99.90;;;;;;7606847;19;20498;-76
2022/11/30 07:41:41;;;;;;;91.43;36.15;;;3.10;99.90;;;;;;7555855;19;20007;-76
2022/11/30 07:44:14;;;;;;;91.85;38.15;;;3.10;99.90;;;;;;7577270;19;20450;-75
2022/11/30 07:46:46;;;;;;;111.78;40.55;;;3.10;99.90;;;;;;7583960;19;20022;-74
2022/11/30 07:49:19;;;;;;;90.82;37.40;;;3.10;99.90;;;;;;7577414;19;20018;-74
2022/11/30 07:51:51;;;;;;;89.32;36.10;;;3.10;99.90;;;;;;7576455;19;20064;-76
2022/11/30 07:54:23;;;;;;;89.90;38.08;;;3.20;99.90;;;;;;7596780;19;20007;-76
2022/11/30 07:56:55;;;;;;;97.88;36.42;;;3.20;99.90;;;;;;7581263;19;20349;-75
2022/11/30 07:59:27;;;;;;;99.82;37.20;;;3.20;99.90;;;;;;7572011;19;21221;-75
2022/11/30 08:01:59;;;;;;;99.45;36.88;;;3.20;99.90;;;;;;7584215;19;20018;-76
2022/11/30 14:25:20;;;;;;;72.40;30.15;;;3.20;99.90;;;;;;7595985;19;20394;-70
2022/11/30 14:27:56;;;;;;;80.38;33.67;;;3.20;99.90;;;;;;7592441;19;20048;-71
2022/11/30 14:30:32;;;;;;;78.40;32.03;;;3.20;99.90;;;;;;7568377;19;20428;-72
2022/11/30 14:33:24;;;;;;;76.40;32.67;;;3.20;99.90;;;;;;7570378;19;20052;-71
2022/11/30 14:35:58;;;;;;;70.32;31.20;;;3.30;99.90;;;;;;7585204;19;21923;-69
2022/11/30 14:38:30;;;;;;;;;;;3.40;99.90;;;;;;7614400;19;20014;-71
2022/11/30 14:41:02;;;;;;;63.15;30.60;;;3.50;99.90;;;;;;7619048;19;20695;-70
2022/11/30 14:43:34;;;;;;;65.72;29.90;;;3.50;99.90;;;;;;7615199;19;20010;-70
2022/11/30 14:46:16;;;;;;;74.63;32.63;;;3.50;99.90;;;;;;7608635;19;20014;-70
2022/11/30 14:49:11;;;;;;;74.03;32.17;;;3.50;99.90;;;;;;7622915;19;20010;-71
2022/11/30 14:51:48;;;;;;;70.18;31.17;;;3.50;99.90;;;;;;7574744;19;20018;-71
2022/11/30 14:54:51;;;;;;;70.90;32.15;;;3.60;99.90;;;;;;7580907;19;20097;-72
2022/11/30 14:57:30;;;;;;;68.70;31.00;;;3.50;99.90;;;;;;7587370;19;22010;-72
2022/11/30 15:00:04;;;;;;;76.80;34.65;;;3.60;99.90;;;;;;7595594;19;20026;-72
2022/11/30 15:02:37;;;;;;;72.65;33.80;;;3.60;99.90;;;;;;7568588;19;20014;-70
2022/11/30 15:05:22;;;;;;;75.97;35.75;;;3.60;99.90;;;;;;7557151;19;21527;-71
2022/11/30 15:07:55;;;;;;;70.85;33.50;;;3.60;99.90;;;;;;7587566;19;20524;-71
2022/11/30 15:10:31;;;;;;;68.35;32.78;;;3.60;99.90;;;;;;7595399;19;20014;-70
2022/11/30 15:13:04;;;;;;;74.82;33.60;;;3.50;99.90;;;;;;7572898;19;20022;-70
2022/11/30 15:15:36;;;;;;;70.88;33.05;;;3.50;99.90;;;;;;7559193;19;21245;-71
2022/11/30 15:18:15;;;;;;;64.22;30.48;;;3.50;99.90;;;;;;7581784;19;20021;-71
2022/11/30 15:21:09;;;;;;;64.97;31.75;;;3.50;99.90;;;;;;7565185;19;20022;-71
2022/11/30 15:23:43;;;;;;;69.82;33.00;;;3.40;99.90;;;;;;7577038;19;21798;-71
2022/11/30 15:26:30;;;;;;;61.50;30.75;;;3.40;99.90;;;;;;7551114;19;20142;-71
2022/11/30 15:29:08;;;;;;;71.28;32.00;;;3.30;99.90;;;;;;7555048;19;20018;-71
2022/11/30 15:31:44;;;;;;;67.15;31.05;;;3.30;99.90;;;;;;7560625;19;20386;-71
2022/11/30 15:34:48;;;;;;;63.13;29.33;;;3.40;99.90;;;;;;7597758;19;20026;-72
2022/11/30 15:37:28;;;;;;;67.40;30.88;;;3.40;99.90;;;;;;7551089;19;20018;-72
2022/11/30 15:40:04;;;;;;;64.18;30.63;;;3.40;99.90;;;;;;7574326;19;20022;-73
2022/11/30 15:42:39;;;;;;;68.00;32.63;;;3.40;99.90;;;;;;7577634;19;21101;-72
2022/11/30 15:45:34;;;;;;;62.88;30.17;;;3.40;99.90;;;;;;7542084;19;20061;-72
2022/11/30 15:48:30;;;;;;;71.57;33.17;;;3.40;99.90;;;;;;7577293;19;20591;-73
2022/11/30 15:51:02;;;;;;;71.78;32.55;;;3.30;99.90;;;;;;7547662;19;20223;-72
2022/11/30 15:53:48;;;;;;;62.95;29.30;;;3.30;99.90;;;;;;7596638;19;20138;-71
2022/11/30 15:59:06;;;;;;;70.68;30.35;;;3.20;99.90;;;;;;7579524;19;20382;-70
2022/11/30 16:02:01;;;;;;;60.42;29.15;;;3.20;99.90;;;;;;7612597;19;20625;-70
2022/11/30 16:04:55;;;;;;;68.55;30.23;;;3.10;99.90;;;;;;7616205;19;20018;-70
2022/11/30 16:07:29;;;;;;;;;;;3.00;99.90;;;;;;7590778;19;20018;-69
2022/11/30 16:10:12;;;;;;;62.10;28.45;;;3.10;99.90;;;;;;7572872;19;19919;-69
2022/11/30 16:12:47;;;;;;;;;;;3.10;99.90;;;;;;7568845;19;20011;-70
2022/11/30 16:15:28;;;;;;;67.65;29.50;;;3.00;99.90;;;;;;7587588;19;19937;-70
2022/11/30 16:18:16;;;;;;;72.65;32.05;;;3.00;99.90;;;;;;7567005;19;20541;-70
2022/11/30 16:20:52;;;;;;;71.18;30.13;;;3.00;99.90;;;;;;7567912;19;20029;-72
2022/11/30 16:23:25;;;;;;;64.55;29.55;;;2.90;99.90;;;;;;7582057;19;20014;-72
2022/11/30 16:25:58;;;;;;;64.28;30.30;;;2.90;99.90;;;;;;7575481;19;21308;-70
2022/11/30 16:28:30;;;;;;;66.85;28.05;;;2.90;99.90;;;;;;7601497;19;20684;-72
2022/11/30 16:31:02;;;;;;;66.03;28.17;;;2.90;99.90;;;;;;7612114;19;20025;-72
2022/11/30 16:33:34;;;;;;;65.68;29.27;;;2.90;99.90;;;;;;7612028;19;20017;-72
2022/11/30 16:36:08;;;;;;;65.65;28.75;;;2.90;99.90;;;;;;7607967;19;20056;-70
2022/11/30 16:38:41;;;;;;;59.83;28.55;;;2.90;99.90;;;;;;7597060;19;20022;-71
2022/11/30 16:41:14;;;;;;;57.85;27.55;;;2.90;99.90;;;;;;7621104;19;20014;-70
2022/11/30 16:43:49;;;;;;;67.57;29.17;;;3.00;99.90;;;;;;7618555;19;20030;-70
2022/11/30 16:46:24;;;;;;;61.95;27.77;;;2.90;99.90;;;;;;7633316;19;20022;-72
2022/11/30 16:48:56;;;;;;;65.50;28.75;;;2.90;99.90;;;;;;7620033;19;20106;-71
2022/11/30 16:51:33;;;;;;;60.67;27.95;;;2.90;99.90;;;;;;7626471;19;20014;-72
2022/11/30 16:54:05;;;;;;;60.03;29.40;;;2.90;99.90;;;;;;7624303;19;20014;-72
2022/11/30 16:56:37;;;;;;;61.08;28.08;;;2.90;99.90;;;;;;7619064;19;20142;-68
2022/11/30 16:59:09;;;;;;;62.40;29.58;;;2.90;99.90;;;;;;7622125;19;20029;-68
2022/11/30 17:01:52;;;;;;;60.95;28.33;;;2.90;99.90;;;;;;7602586;19;20074;-70
2022/11/30 17:04:28;;;;;;;66.85;29.05;;;2.90;99.90;;;;;;7606664;19;20514;-72
2022/11/30 17:07:00;;;;;;;68.30;30.58;;;2.90;99.90;;;;;;7620259;19;20010;-71
2022/11/30 17:09:34;;;;;;;;;;;2.90;99.90;;;;;;7598697;19;20054;-69
2022/11/30 17:12:08;;;;;;;61.00;26.95;;;2.80;99.90;;;;;;7575973;19;19960;-70
2022/11/30 17:14:40;;;;;;;60.58;28.05;;;2.90;99.90;;;;;;7519764;19;20036;-71
2022/11/30 17:17:12;;;;;;;60.78;28.23;;;2.80;99.90;;;;;;7555405;19;20014;-69
2022/11/30 17:19:45;;;;;;;60.25;28.00;;;2.80;99.90;;;;;;7561721;19;20649;-69
2022/11/30 17:22:17;;;;;;;62.22;28.80;;;2.80;99.90;;;;;;7557529;19;20021;-70
2022/11/30 17:24:49;;;;;;;64.72;28.48;;;2.80;99.90;;;;;;7564325;19;20025;-69
2022/11/30 17:27:21;;;;;;;64.32;29.13;;;2.80;99.90;;;;;;7550919;19;20018;-70
2022/11/30 17:29:54;;;;;;;63.63;28.77;;;2.70;99.90;;;;;;7569053;19;20023;-70
2022/11/30 17:32:26;;;;;;;60.47;27.90;;;2.70;99.90;;;;;;7561685;19;20015;-68
2022/11/30 17:34:58;;;;;;;65.90;29.63;;;2.70;99.90;;;;;;7566035;19;20109;-69
2022/11/30 17:37:30;;;;;;;60.65;29.13;;;2.70;99.90;;;;;;7568811;19;20392;-72
2022/11/30 17:40:03;;;;;;;63.75;28.95;;;2.80;99.90;;;;;;7557606;19;20024;-72
2022/11/30 17:42:35;;;;;;;63.83;29.50;;;2.80;99.90;;;;;;7550917;19;20022;-73
2022/11/30 17:45:08;;;;;;;61.28;27.63;;;2.80;99.90;;;;;;6522614;19;10000228;-69
2022/11/30 17:47:40;;;;;;;73.10;30.03;;;2.80;99.90;;;;;;7574156;19;20014;-69
2022/11/30 17:50:13;;;;;;;71.20;30.88;;;2.80;99.90;;;;;;7589008;19;20281;-69
2022/11/30 17:52:45;;;;;;;69.35;30.50;;;2.80;99.90;;;;;;7554478;19;20014;-69
2022/11/30 17:55:18;;;;;;;66.53;29.67;;;2.80;99.90;;;;;;7553078;19;20011;-69
2022/11/30 17:57:50;;;;;;;63.80;29.33;;;2.80;99.90;;;;;;7556480;19;20030;-69
2022/11/30 18:00:23;;;;;;;67.53;30.77;;;2.80;99.90;;;;;;7560831;19;20015;-67
2022/11/30 18:02:55;;;;;;;68.03;30.02;;;2.80;99.90;;;;;;7575117;19;20022;-71
2022/11/30 18:05:27;;;;;;;69.25;31.52;;;2.80;99.90;;;;;;7572255;19;20021;-70
2022/11/30 18:07:59;;;;;;;70.60;31.38;;;2.70;99.90;;;;;;7396573;19;20014;-70
2022/11/30 18:10:32;;;;;;;65.97;30.45;;;2.70;99.90;;;;;;7580240;19;20029;-70
2022/11/30 18:13:04;;;;;;;62.60;29.58;;;2.70;99.90;;;;;;7592173;19;20055;-69
2022/11/30 18:15:36;;;;;;;67.63;30.15;;;2.70;99.90;;;;;;7559697;19;20106;-70
2022/11/30 18:18:08;;;;;;;75.63;32.10;;;2.80;99.90;;;;;;7563972;19;20028;-70
2022/11/30 18:20:40;;;;;;;71.40;31.92;;;2.80;99.90;;;;;;7576864;19;20082;-70
2022/11/30 18:23:12;;;;;;;70.68;31.88;;;2.80;99.90;;;;;;7587360;19;20014;-70
2022/11/30 18:25:45;;;;;;;69.50;31.27;;;2.70;99.90;;;;;;7591151;19;20421;-70
2022/11/30 18:28:17;;;;;;;72.78;32.80;;;2.80;99.90;;;;;;7596804;19;20031;-71
2022/11/30 18:30:52;;;;;;;70.72;30.55;;;2.80;99.90;;;;;;7599032;19;20077;-70
2022/11/30 18:33:25;;;;;;;67.60;31.30;;;2.70;99.90;;;;;;7588093;19;20700;-70
2022/11/30 18:35:58;;;;;;;72.22;32.08;;;2.70;99.90;;;;;;7592281;19;20014;-70
2022/11/30 18:38:30;;;;;;;64.70;29.75;;;2.70;99.90;;;;;;7591603;19;20026;-69
2022/11/30 18:41:10;;;;;;;81.78;33.00;;;2.80;99.90;;;;;;7576607;19;20018;-72
2022/11/30 18:43:43;;;;;;;67.82;30.02;;;2.70;99.90;;;;;;7583440;19;20053;-73
2022/11/30 18:46:15;;;;;;;76.93;31.98;;;2.70;99.90;;;;;;7534209;19;20565;-72
2022/11/30 18:48:49;;;;;;;73.28;31.70;;;2.70;99.90;;;;;;7569446;19;20035;-73
2022/11/30 18:51:24;;;;;;;68.68;31.60;;;2.70;99.90;;;;;;7580755;19;21957;-72
2022/11/30 18:53:59;;;;;;;71.68;31.33;;;2.70;99.90;;;;;;7564783;19;20022;-71
2022/11/30 18:56:33;;;;;;;75.55;32.90;;;2.70;99.90;;;;;;7533923;19;21433;-72
2022/11/30 18:59:14;;;;;;;67.45;30.55;;;2.60;99.90;;;;;;7516501;19;20991;-71
2022/11/30 19:01:46;;;;;;;77.13;34.05;;;2.70;99.90;;;;;;7527654;19;20022;-71
2022/11/30 19:04:19;;;;;;;74.22;32.58;;;2.70;99.90;;;;;;7557237;19;20022;-71
2022/11/30 19:06:51;;;;;;;71.57;32.40;;;2.70;99.90;;;;;;7548909;19;20253;-70
2022/11/30 19:09:23;;;;;;;76.72;32.55;;;2.80;99.90;;;;;;7508614;19;20792;-71
2022/11/30 19:11:56;;;;;;;77.68;33.60;;;2.80;99.90;;;;;;7527533;19;20408;-71
2022/11/30 19:14:29;;;;;;;69.63;32.88;;;2.80;99.90;;;;;;7534397;19;20609;-72
2022/11/30 19:17:01;;;;;;;72.33;32.50;;;2.80;99.90;;;;;;7504329;19;20382;-71
2022/11/30 19:19:34;;;;;;;72.63;32.28;;;2.80;99.90;;;;;;7504527;19;20022;-70
2022/11/30 19:22:06;;;;;;;72.63;33.03;;;2.80;99.90;;;;;;7503982;19;20021;-69
2022/11/30 19:24:39;;;;;;;80.55;34.17;;;2.80;99.90;;;;;;7492706;19;20553;-70
2022/11/30 19:27:11;;;;;;;78.88;34.70;;;2.80;99.90;;;;;;7518887;19;20438;-70
2022/11/30 19:29:43;;;;;;;77.50;34.03;;;2.80;99.90;;;;;;7532249;19;20601;-70
2022/11/30 19:32:15;;;;;;;74.45;30.88;;;2.80;99.90;;;;;;7501151;19;20014;-70
2022/11/30 19:34:48;;;;;;;76.95;34.35;;;2.80;99.90;;;;;;7517215;19;21638;-70
2022/11/30 19:37:20;;;;;;;82.47;34.53;;;2.90;99.90;;;;;;7507000;19;20018;-71
2022/11/30 19:39:53;;;;;;;87.03;35.65;;;2.80;99.90;;;;;;7547134;19;20029;-70
2022/11/30 19:42:25;;;;;;;83.70;35.05;;;2.80;99.90;;;;;;7522014;19;20010;-70
2022/11/30 19:44:57;;;;;;;79.68;33.42;;;2.80;99.90;;;;;;7573333;19;20048;-70
2022/11/30 19:47:29;;;;;;;79.82;34.70;;;2.80;99.90;;;;;;7571367;19;21334;-70
2022/11/30 19:50:03;;;;;;;79.32;34.67;;;2.80;99.90;;;;;;7537040;19;20030;-69
2022/11/30 19:52:35;;;;;;;83.40;35.58;;;2.90;99.90;;;;;;7519419;19;20011;-72
2022/11/30 19:55:08;;;;;;;78.90;34.63;;;2.90;99.90;;;;;;7512175;19;20019;-70
2022/11/30 19:57:40;;;;;;;82.70;35.90;;;2.90;99.90;;;;;;7514158;19;20089;-71
2022/11/30 20:00:13;;;;;;;82.50;36.28;;;2.90;99.90;;;;;;7534997;19;20279;-71
